createdAt,value
2023-05-24T10:06:09.289Z,102661.52
2023-05-24T10:09:46.135Z,102646.09
2023-05-24T10:13:26.958Z,102644.52
2023-05-24T10:16:58.019Z,102661.52
2023-05-24T10:20:29.926Z,102676.17
2023-05-24T10:38:30.678Z,102758.66
2023-05-24T10:42:00.110Z,102765.85
2023-05-24T10:45:31.227Z,102772.48
2023-05-24T10:49:11.415Z,102782.50
2023-05-24T10:52:55.078Z,102789.43
2023-05-24T10:57:05.393Z,102801.96
2023-05-24T11:00:34.494Z,102811.16
2023-05-24T11:04:08.286Z,102820.06
2023-05-24T11:07:59.589Z,102821.90
2023-05-24T11:11:29.432Z,102848.27
2023-05-24T11:19:16.069Z,102849.07
2023-05-24T11:23:01.875Z,102851.29
2023-05-24T11:26:32.784Z,102856.10
2023-05-24T11:29:53.810Z,102832.61
2023-05-24T11:33:30.774Z,102827.50
2023-05-24T11:37:46.066Z,102834.88
2023-05-24T11:40:45.352Z,102855.77
2023-05-24T12:06:46.319Z,103065.63
2023-05-24T12:10:27.675Z,103074.58
2023-05-24T12:14:51.678Z,103066.44
2023-05-24T12:18:23.557Z,103046.28
2023-05-24T12:22:00.974Z,103010.05
2023-05-24T12:25:33.912Z,102975.09
2023-05-24T12:29:05.848Z,102933.33
2023-05-24T12:33:40.821Z,102884.84
2023-05-24T12:37:05.369Z,102848.23
2023-05-24T12:40:43.552Z,102810.83
2023-05-24T12:49:35.826Z,102790.31
2023-05-24T12:53:12.527Z,102771.63
2023-05-24T13:00:39.549Z,102729.30
2023-05-24T13:21:58.236Z,102669.63
2023-05-24T13:25:39.628Z,102654.16
2023-05-24T13:33:12.803Z,102670.86
2023-05-24T13:37:17.006Z,102669.08
2023-05-24T13:55:54.203Z,102649.95
2023-05-24T13:59:28.804Z,102630.84
2023-05-24T14:03:00.267Z,102602.72
2023-05-24T14:06:19.048Z,102544.77
2023-05-24T14:10:45.024Z,102500.61
2023-05-24T14:50:51.725Z,102360.21
2023-05-24T14:58:37.984Z,102324.41
2023-05-24T15:10:23.360Z,102261.55
2023-05-24T15:13:36.913Z,102244.98
2023-05-24T15:17:15.630Z,102226.61
2023-05-24T15:20:50.214Z,102206.39
2023-05-24T15:24:16.243Z,102181.34
2023-05-24T15:28:03.221Z,102163.81
2023-05-24T16:04:16.618Z,102133.87
2023-05-24T16:23:16.473Z,102111.06
2023-05-24T16:26:47.806Z,102101.25
2023-05-24T16:30:26.302Z,102089.61
2023-05-24T16:34:09.887Z,102084.42
2023-05-24T16:42:09.143Z,102061.95
2023-05-24T16:49:16.665Z,102058.18
2023-05-24T16:53:13.742Z,102054.73
2023-05-24T16:57:41.898Z,102065.55
2023-05-24T17:02:01.558Z,102076.36
2023-05-24T17:06:14.235Z,102071.64
2023-05-24T17:10:04.520Z,102071.46
2023-05-24T17:13:48.323Z,102064.70
2023-05-24T17:17:33.588Z,102073.86
2023-05-24T17:21:08.120Z,102083.86
2023-05-24T17:24:51.547Z,102089.21
2023-05-24T17:28:37.829Z,102092.14
2023-05-24T17:32:13.518Z,102089.52
2023-05-24T17:36:14.664Z,102088.65
2023-05-24T17:39:55.822Z,102089.61
2023-05-24T17:43:31.108Z,102088.09
2023-05-24T17:47:52.616Z,102085.89
2023-05-24T18:00:53.034Z,102069.03
2023-05-24T18:08:31.823Z,102067.66
2023-05-24T18:12:50.663Z,102058.09
2023-05-24T18:20:36.883Z,102057.61
2023-05-24T18:23:35.931Z,102057.91
2023-05-24T18:27:23.599Z,102060.81
2023-05-24T18:31:31.425Z,102062.45
2023-05-24T18:35:06.452Z,102067.23
2023-05-24T18:38:47.826Z,102072.59
2023-05-24T18:42:39.770Z,102071.49
2023-05-24T18:46:08.551Z,102079.05
2023-05-24T18:49:38.861Z,102084.61
2023-05-24T18:53:10.753Z,102086.23
2023-05-24T19:20:00.383Z,102147.48
2023-05-24T19:47:05.336Z,102185.20
2023-05-24T19:50:37.138Z,102186.91
2023-05-24T19:54:19.755Z,102187.86
2023-05-24T20:12:47.251Z,102213.23
2023-05-24T20:16:33.730Z,102216.63
2023-05-24T20:20:18.048Z,102211.34
2023-05-24T20:39:11.463Z,102251.58
2023-05-24T20:47:00.432Z,102248.90
2023-05-24T21:02:54.036Z,102272.98
2023-05-24T21:06:38.046Z,102268.61
2023-05-24T21:14:10.635Z,102273.57
2023-05-24T21:49:50.125Z,102366.45
2023-05-24T21:53:19.554Z,102361.62
2023-05-24T21:57:04.853Z,102355.75
2023-05-24T22:16:06.155Z,102381.17
2023-05-24T22:19:45.471Z,102380.19
2023-05-24T22:26:45.811Z,102382.73
2023-05-24T22:30:31.814Z,102388.14
2023-05-24T22:57:06.508Z,102488.08
2023-05-24T23:00:37.462Z,102476.64
2023-05-24T23:04:21.053Z,102475.13
2023-05-24T23:08:02.495Z,102474.77
2023-05-24T23:30:54.901Z,102525.52
2023-05-24T23:34:36.026Z,102523.11
2023-05-24T23:38:15.412Z,102524.98
2023-05-24T23:41:47.245Z,102534.23
2023-05-24T23:45:25.009Z,102540.21
2023-05-24T23:49:18.308Z,102547.21
